Time;durP1;ratioP1;P1;durP2;ratioP2;P2;SDS_P1;SDS_P2;PMS_P1;PMS_P2;Temp;Humidity;BMP_temperature;BMP_pressure;BME280_temperature;BME280_humidity;BME280_pressure;Samples;Min_cycle;Max_cycle;Signal;HPM_P1;HPM_P2
2023/03/28 00:01:53;;;;;;;16.95;2.13;;;1.70;99.90;;;;;;5051543;28;20480;-75
2023/03/28 00:04:21;;;;;;;16.45;2.30;;;1.70;99.90;;;;;;5051800;28;20049;-75
2023/03/28 00:06:48;;;;;;;7.93;1.35;;;1.60;99.90;;;;;;5052871;28;20036;-75
2023/03/28 00:09:14;;;;;;;19.92;1.88;;;1.60;99.90;;;;;;5051318;28;20048;-75
2023/03/28 00:11:39;;;;;;;8.55;1.27;;;1.60;99.90;;;;;;5033553;28;20053;-75
2023/03/28 00:14:07;;;;;;;13.73;1.75;;;1.50;99.90;;;;;;5051569;28;20045;-75
2023/03/28 00:16:35;;;;;;;15.23;1.85;;;1.40;99.90;;;;;;5052574;28;20108;-74
2023/03/28 00:19:07;;;;;;;16.60;1.92;;;1.40;99.90;;;;;;5051182;28;20064;-75
2023/03/28 00:21:39;;;;;;;15.68;2.30;;;1.30;99.90;;;;;;5051207;28;20116;-75
2023/03/28 00:24:09;;;;;;;12.05;1.85;;;1.30;99.90;;;;;;5050925;28;20049;-76
2023/03/28 00:26:36;;;;;;;14.85;1.77;;;1.30;99.90;;;;;;5051365;28;20093;-75
2023/03/28 00:29:10;;;;;;;11.00;1.73;;;1.20;99.90;;;;;;5052387;28;20097;-76
2023/03/28 00:31:37;;;;;;;14.52;1.90;;;1.20;99.90;;;;;;5051309;28;20053;-75
2023/03/28 00:34:04;;;;;;;15.93;1.73;;;1.10;99.90;;;;;;5051230;28;20041;-75
2023/03/28 00:36:31;;;;;;;12.00;1.58;;;1.00;99.90;;;;;;5051314;28;20109;-74
2023/03/28 00:39:04;;;;;;;12.77;1.63;;;1.00;99.90;;;;;;5052259;28;20446;-75
2023/03/28 00:41:33;;;;;;;14.27;1.98;;;0.90;99.90;;;;;;5051231;28;20047;-75
2023/03/28 00:44:00;;;;;;;14.40;2.45;;;0.90;99.90;;;;;;5050840;28;20049;-75
2023/03/28 00:46:41;;;;;;;13.25;1.48;;;0.80;99.90;;;;;;5049856;28;20480;-76
2023/03/28 00:49:20;;;;;;;10.27;1.55;;;0.70;99.90;;;;;;5051639;28;20493;-75
2023/03/28 00:51:56;;;;;;;9.73;1.65;;;0.70;99.90;;;;;;5050760;28;20545;-76
2023/03/28 00:54:26;;;;;;;14.32;1.80;;;0.70;99.90;;;;;;5032096;28;20084;-76
2023/03/28 00:56:55;;;;;;;18.52;2.03;;;0.60;99.90;;;;;;5051578;28;20054;-75
2023/03/28 00:59:25;;;;;;;13.15;2.17;;;0.60;99.90;;;;;;5050520;28;20179;-75
2023/03/28 01:01:54;;;;;;;7.97;1.80;;;0.60;99.90;;;;;;5061131;28;20044;-75
2023/03/28 01:04:21;;;;;;;13.52;2.03;;;0.60;99.90;;;;;;5070524;28;20052;-75
2023/03/28 01:06:50;;;;;;;9.85;2.28;;;0.50;99.90;;;;;;5068679;28;20060;-76
2023/03/28 01:09:18;;;;;;;12.27;1.52;;;0.50;99.90;;;;;;5069923;28;20522;-76
2023/03/28 01:11:45;;;;;;;15.75;1.92;;;0.50;99.90;;;;;;5069934;28;20060;-75
2023/03/28 01:14:16;;;;;;;13.20;1.80;;;0.50;99.90;;;;;;5070100;28;20052;-74
2023/03/28 01:16:46;;;;;;;13.60;1.50;;;0.50;99.90;;;;;;5069323;28;20474;-74
2023/03/28 01:19:43;;;;;;;15.15;2.42;;;0.50;99.90;;;;;;5070166;28;20048;-75
2023/03/28 01:22:24;;;;;;;14.55;2.10;;;0.40;99.90;;;;;;5070078;28;20402;-75
2023/03/28 01:25:26;;;;;;;16.33;1.85;;;0.50;99.90;;;;;;5070044;28;20053;-76
2023/03/28 01:28:09;;;;;;;9.30;1.80;;;0.50;99.90;;;;;;5068547;28;20051;-76
2023/03/28 01:30:58;;;;;;;15.55;1.85;;;0.50;99.90;;;;;;5069873;28;20056;-75
2023/03/28 01:33:48;;;;;;;19.05;2.25;;;0.40;99.90;;;;;;5070374;28;20039;-75
2023/03/28 01:36:47;;;;;;;11.77;1.92;;;0.50;99.90;;;;;;5070037;28;20451;-75
2023/03/28 01:39:32;;;;;;;15.77;1.92;;;0.40;99.90;;;;;;5067732;28;20048;-75
2023/03/28 01:42:25;;;;;;;16.23;3.08;;;0.40;99.90;;;;;;5070064;28;20075;-75
2023/03/28 01:45:30;;;;;;;16.63;2.20;;;0.40;99.90;;;;;;5070048;28;20051;-75
2023/03/28 01:48:05;;;;;;;15.25;1.90;;;0.30;99.90;;;;;;5052161;28;20047;-76
2023/03/28 01:50:42;;;;;;;14.25;2.13;;;0.30;99.90;;;;;;5031826;28;20053;-74
2023/03/28 01:53:20;;;;;;;14.13;2.08;;;0.40;99.90;;;;;;5032769;28;20048;-75
2023/03/28 01:55:52;;;;;;;13.15;1.90;;;0.30;99.90;;;;;;5049270;28;20523;-75
2023/03/28 01:58:50;;;;;;;13.57;1.80;;;0.30;99.90;;;;;;5049615;28;20061;-74
2023/03/28 02:01:23;;;;;;;13.27;2.13;;;0.30;99.90;;;;;;4976557;28;20058;-75
2023/03/28 02:03:55;;;;;;;12.23;1.95;;;0.30;99.90;;;;;;4969046;28;20502;-74
2023/03/28 02:06:22;;;;;;;14.68;1.80;;;0.30;99.90;;;;;;4978213;28;20055;-74
2023/03/28 02:08:51;;;;;;;9.77;2.00;;;0.30;99.90;;;;;;4987575;28;20042;-75
2023/03/28 02:11:17;;;;;;;19.52;2.40;;;0.30;99.90;;;;;;4984247;28;20058;-73
2023/03/28 02:13:54;;;;;;;12.95;2.35;;;0.30;99.90;;;;;;4976869;28;20505;-76
2023/03/28 02:16:21;;;;;;;20.23;2.42;;;0.30;99.90;;;;;;4971455;28;20082;-75
2023/03/28 02:18:53;;;;;;;10.80;3.00;;;0.30;99.90;;;;;;4968621;28;20059;-74
2023/03/28 02:21:28;;;;;;;11.85;1.60;;;0.30;99.90;;;;;;4969014;28;20046;-74
2023/03/28 02:23:55;;;;;;;13.93;2.05;;;0.30;99.90;;;;;;4988553;28;20839;-74
2023/03/28 02:26:22;;;;;;;18.73;4.13;;;0.30;99.90;;;;;;4974731;28;20058;-75
2023/03/28 02:28:52;;;;;;;17.52;1.90;;;0.30;99.90;;;;;;4952760;28;20059;-74
2023/03/28 02:31:20;;;;;;;19.17;2.22;;;0.30;99.90;;;;;;4968589;28;20106;-74
2023/03/28 02:33:47;;;;;;;18.17;2.40;;;0.30;99.90;;;;;;4969453;28;20093;-74
2023/03/28 02:36:21;;;;;;;14.65;2.72;;;0.20;99.90;;;;;;4952333;28;20396;-74
2023/03/28 02:39:13;;;;;;;14.43;1.70;;;0.20;99.90;;;;;;5022167;28;20056;-75
2023/03/28 02:42:05;;;;;;;14.23;2.15;;;0.20;99.90;;;;;;5068475;28;20048;-74
2023/03/28 02:45:25;;;;;;;11.88;2.00;;;0.20;99.90;;;;;;5036706;28;20131;-74
2023/03/28 02:48:05;;;;;;;10.48;2.10;;;0.20;99.90;;;;;;5024932;28;20102;-74
2023/03/28 02:51:16;;;;;;;12.73;1.70;;;0.20;99.90;;;;;;5068622;28;20040;-74
2023/03/28 02:54:28;;;;;;;14.18;2.00;;;0.20;99.90;;;;;;4986075;28;20069;-74
2023/03/28 02:57:27;;;;;;;13.75;2.00;;;0.20;99.90;;;;;;4913487;29;20047;-74
2023/03/28 03:00:08;;;;;;;18.45;2.13;;;0.20;99.90;;;;;;4899473;29;20062;-74
2023/03/28 03:02:34;;;;;;;13.88;2.42;;;0.10;99.90;;;;;;4917351;29;20139;-74
2023/03/28 03:05:00;;;;;;;16.33;1.90;;;0.10;99.90;;;;;;4896078;29;20513;-74
2023/03/28 03:07:27;;;;;;;15.38;1.92;;;0.10;99.90;;;;;;4910526;29;20135;-75
2023/03/28 03:09:53;;;;;;;18.63;2.67;;;0.00;99.90;;;;;;4916351;29;20060;-74
2023/03/28 03:12:22;;;;;;;12.68;1.55;;;0.10;99.90;;;;;;4951841;29;20086;-75
2023/03/28 03:14:49;;;;;;;25.35;2.85;;;0.00;99.90;;;;;;4951578;29;20047;-76
2023/03/28 03:17:19;;;;;;;19.55;2.25;;;0.00;99.90;;;;;;4951839;29;20055;-76
2023/03/28 03:19:44;;;;;;;12.30;1.73;;;0.10;99.90;;;;;;4952041;29;20059;-75
2023/03/28 03:22:10;;;;;;;21.00;2.42;;;0.10;99.90;;;;;;4951307;29;20149;-77
2023/03/28 03:24:36;;;;;;;16.70;2.55;;;0.10;99.90;;;;;;4951930;29;20047;-74
2023/03/28 03:27:02;;;;;;;9.63;1.88;;;0.00;99.90;;;;;;4972874;28;20064;-75
2023/03/28 03:29:28;;;;;;;17.40;2.67;;;0.00;99.90;;;;;;5052049;28;20504;-74
2023/03/28 03:31:54;;;;;;;12.40;2.13;;;1.10;99.90;;;;;;5051759;28;20057;-74
2023/03/28 03:34:20;;;;;;;18.05;2.75;;;0.00;99.90;;;;;;5051911;28;20041;-75
2023/03/28 03:36:45;;;;;;;10.75;1.80;;;0.00;99.90;;;;;;5051253;28;20049;-75
2023/03/28 03:39:11;;;;;;;16.13;2.20;;;0.00;99.90;;;;;;5052349;28;20044;-75
2023/03/28 03:41:37;;;;;;;16.52;1.90;;;0.00;99.90;;;;;;5051454;28;20049;-75
2023/03/28 03:44:03;;;;;;;10.93;1.83;;;0.00;99.90;;;;;;5051831;28;20123;-76
2023/03/28 03:46:29;;;;;;;17.88;2.45;;;-0.10;99.90;;;;;;5051423;28;20044;-74
2023/03/28 03:48:55;;;;;;;11.77;1.58;;;-0.10;99.90;;;;;;5051944;28;20543;-75
2023/03/28 03:51:20;;;;;;;17.10;3.40;;;-0.10;99.90;;;;;;5033804;28;20163;-76
2023/03/28 03:53:49;;;;;;;17.77;2.10;;;-0.10;99.90;;;;;;5033700;28;20051;-75
2023/03/28 03:56:15;;;;;;;15.98;1.65;;;-0.10;99.90;;;;;;5051829;28;20059;-76
2023/03/28 03:58:41;;;;;;;15.40;1.90;;;-0.10;99.90;;;;;;5050990;28;20116;-76
2023/03/28 04:01:08;;;;;;;18.48;2.10;;;-0.10;99.90;;;;;;5051344;28;20033;-76
2023/03/28 04:03:34;;;;;;;12.50;1.77;;;-0.10;99.90;;;;;;5051790;28;20076;-75
2023/03/28 04:06:00;;;;;;;12.57;2.20;;;-0.10;99.90;;;;;;5051595;28;20400;-75
2023/03/28 04:08:26;;;;;;;16.50;2.13;;;-0.10;99.90;;;;;;5051367;28;20060;-75
2023/03/28 04:10:52;;;;;;;9.80;2.03;;;-0.10;99.90;;;;;;5061939;28;20052;-75
2023/03/28 04:13:17;;;;;;;9.48;2.00;;;-0.10;99.90;;;;;;5071253;28;20058;-76
2023/03/28 04:15:46;;;;;;;12.80;1.77;;;-0.10;99.90;;;;;;5037105;28;20060;-74
2023/03/28 04:18:14;;;;;;;10.82;1.75;;;-0.10;99.90;;;;;;5035035;28;20068;-74
2023/03/28 04:20:42;;;;;;;8.13;2.33;;;-0.10;99.90;;;;;;5070903;28;20436;-77
2023/03/28 04:23:08;;;;;;;16.48;2.05;;;-0.10;99.90;;;;;;5071137;28;20131;-75
2023/03/28 04:25:34;;;;;;;13.15;2.17;;;-0.10;99.90;;;;;;5065481;28;20041;-75
2023/03/28 04:28:00;;;;;;;12.70;1.58;;;-0.10;99.90;;;;;;5051024;28;20045;-76
2023/03/28 04:30:26;;;;;;;13.73;1.85;;;-0.10;99.90;;;;;;5050512;28;20558;-76
2023/03/28 04:32:53;;;;;;;10.73;1.73;;;-0.10;99.90;;;;;;5051160;28;20493;-75
2023/03/28 04:35:19;;;;;;;10.10;1.58;;;-0.10;99.90;;;;;;5057852;28;20120;-75
2023/03/28 04:37:46;;;;;;;11.88;1.58;;;-0.10;99.90;;;;;;5070313;28;20044;-76
2023/03/28 04:40:14;;;;;;;16.10;1.77;;;0.00;99.90;;;;;;5051474;28;20105;-78
2023/03/28 04:42:40;;;;;;;13.48;1.63;;;0.00;99.90;;;;;;5071152;28;20080;-76
2023/03/28 04:45:07;;;;;;;12.20;1.80;;;0.00;99.90;;;;;;5070740;28;20084;-75
2023/03/28 04:47:33;;;;;;;17.38;1.88;;;0.00;99.90;;;;;;5070649;28;20048;-75
2023/03/28 04:49:59;;;;;;;10.75;2.05;;;0.00;99.90;;;;;;5068935;28;20083;-77
2023/03/28 04:52:25;;;;;;;13.10;1.67;;;0.00;99.90;;;;;;5070696;28;20071;-75
2023/03/28 04:54:51;;;;;;;17.58;2.25;;;0.60;99.90;;;;;;5070746;28;20052;-74
2023/03/28 04:57:17;;;;;;;10.52;1.73;;;0.10;99.90;;;;;;5070450;28;20037;-75
2023/03/28 04:59:43;;;;;;;9.43;1.60;;;0.10;99.90;;;;;;5052377;28;20131;-75
2023/03/28 05:02:09;;;;;;;14.63;2.88;;;0.10;99.90;;;;;;5068869;28;20106;-76
2023/03/28 05:04:36;;;;;;;16.50;1.95;;;0.10;99.90;;;;;;5070422;28;20132;-77
2023/03/28 05:07:03;;;;;;;6.57;1.63;;;0.20;99.90;;;;;;5033588;28;20404;-74
2023/03/28 05:09:29;;;;;;;8.93;1.75;;;0.20;99.90;;;;;;5069702;28;20044;-74
2023/03/28 05:11:56;;;;;;;7.63;2.00;;;0.20;99.90;;;;;;5068577;28;20131;-74
2023/03/28 05:14:21;;;;;;;12.38;2.22;;;0.20;99.90;;;;;;5070144;28;20045;-75
2023/03/28 05:16:47;;;;;;;15.18;2.10;;;0.20;99.90;;;;;;5070324;28;20055;-74
2023/03/28 05:19:12;;;;;;;13.13;1.73;;;0.30;99.90;;;;;;5070240;28;20396;-74
2023/03/28 05:21:39;;;;;;;16.52;2.35;;;0.30;99.90;;;;;;5051450;28;20377;-73
2023/03/28 05:24:07;;;;;;;10.38;1.63;;;0.30;99.90;;;;;;5068907;28;20045;-74
2023/03/28 05:26:35;;;;;;;11.50;1.70;;;0.30;99.90;;;;;;5069906;28;20048;-75
2023/03/28 05:29:00;;;;;;;13.75;1.90;;;0.40;99.90;;;;;;5051737;28;20120;-74
2023/03/28 05:31:29;;;;;;;17.67;1.98;;;0.40;99.90;;;;;;5068053;28;20135;-74
2023/03/28 05:33:54;;;;;;;13.32;2.13;;;1.60;99.90;;;;;;5070321;28;20051;-74
2023/03/28 05:36:20;;;;;;;12.32;1.85;;;0.50;99.90;;;;;;5070282;28;20045;-75
2023/03/28 05:38:46;;;;;;;11.45;1.88;;;0.50;99.90;;;;;;5069381;28;20036;-75
2023/03/28 05:41:12;;;;;;;13.35;1.85;;;0.50;99.90;;;;;;5068391;28;20097;-75
2023/03/28 05:43:38;;;;;;;10.45;1.70;;;0.60;99.90;;;;;;5069969;28;20055;-74
2023/03/28 05:46:04;;;;;;;14.48;2.03;;;0.70;99.90;;;;;;5051900;28;20044;-77
2023/03/28 05:48:30;;;;;;;11.85;2.22;;;0.70;99.90;;;;;;5069850;28;20381;-75
2023/03/28 05:50:56;;;;;;;16.92;2.40;;;0.70;99.90;;;;;;5068806;28;20052;-74
2023/03/28 05:53:22;;;;;;;9.73;1.83;;;0.70;99.90;;;;;;5051073;28;20063;-76
2023/03/28 05:55:48;;;;;;;10.15;2.80;;;0.80;99.90;;;;;;5069735;28;20048;-77
2023/03/28 05:58:15;;;;;;;11.48;1.98;;;0.80;99.90;;;;;;5066574;28;20047;-74
2023/03/28 06:00:41;;;;;;;13.65;1.85;;;0.90;99.90;;;;;;5049534;28;20045;-74
2023/03/28 06:03:08;;;;;;;9.00;1.60;;;0.90;99.90;;;;;;5050740;28;20124;-75
2023/03/28 06:05:34;;;;;;;14.13;2.33;;;0.90;99.90;;;;;;5049410;28;20059;-75
2023/03/28 06:08:00;;;;;;;10.45;1.75;;;1.00;99.90;;;;;;5031654;28;20045;-75
2023/03/28 06:10:26;;;;;;;10.77;1.85;;;1.00;99.90;;;;;;5049215;28;20515;-74
2023/03/28 06:12:52;;;;;;;14.00;2.28;;;1.00;99.90;;;;;;5050900;28;20049;-75
2023/03/28 06:15:17;;;;;;;11.45;2.10;;;1.10;99.90;;;;;;5031770;28;20056;-74
2023/03/28 06:17:43;;;;;;;14.93;2.28;;;1.10;99.90;;;;;;5049651;28;20053;-73
2023/03/28 06:20:09;;;;;;;13.10;2.10;;;1.20;99.90;;;;;;5032515;28;20048;-74
2023/03/28 06:22:36;;;;;;;10.95;2.05;;;1.20;99.90;;;;;;5049529;28;20045;-74
2023/03/28 06:25:04;;;;;;;9.55;2.25;;;1.30;99.90;;;;;;5016120;28;20052;-75
2023/03/28 06:27:30;;;;;;;13.05;2.47;;;1.30;99.90;;;;;;5069296;28;20056;-74
2023/03/28 06:29:58;;;;;;;13.57;3.25;;;1.40;99.90;;;;;;5067748;28;20044;-74
2023/03/28 06:32:24;;;;;;;20.50;3.17;;;1.40;99.90;;;;;;5069234;28;20048;-74
2023/03/28 06:34:50;;;;;;;8.90;2.40;;;1.20;99.90;;;;;;5069388;28;20048;-74
2023/03/28 06:37:16;;;;;;;13.70;2.25;;;1.50;99.90;;;;;;5069002;28;20044;-75
2023/03/28 06:39:41;;;;;;;21.65;3.03;;;1.60;99.90;;;;;;5067288;28;20059;-75
2023/03/28 06:42:07;;;;;;;15.60;2.53;;;1.60;99.90;;;;;;5069499;28;20043;-76
2023/03/28 06:44:33;;;;;;;14.50;2.13;;;1.70;99.90;;;;;;5070697;28;20487;-76
2023/03/28 06:46:59;;;;;;;12.07;2.38;;;1.70;99.90;;;;;;5070523;28;20051;-75
2023/03/28 06:49:25;;;;;;;11.60;2.40;;;1.80;99.90;;;;;;5054006;28;20145;-75
2023/03/28 06:51:51;;;;;;;11.48;2.10;;;1.80;99.90;;;;;;5073441;28;20399;-75
2023/03/28 06:54:17;;;;;;;11.63;2.00;;;1.80;99.90;;;;;;5073098;28;20075;-75
2023/03/28 06:56:43;;;;;;;12.63;2.10;;;1.80;99.90;;;;;;5073153;28;20474;-75
2023/03/28 06:59:09;;;;;;;13.55;2.67;;;2.70;99.90;;;;;;5073080;28;20426;-74
2023/03/28 07:01:34;;;;;;;15.45;2.22;;;1.80;99.90;;;;;;5070862;28;20044;-75
2023/03/28 07:04:01;;;;;;;10.93;2.03;;;1.90;99.90;;;;;;5072773;28;20044;-75
2023/03/28 07:06:28;;;;;;;15.52;2.45;;;1.90;99.90;;;;;;5072875;28;20059;-76
2023/03/28 07:08:57;;;;;;;14.45;2.55;;;2.00;99.90;;;;;;5072391;28;20051;-76
2023/03/28 07:11:23;;;;;;;10.27;2.40;;;2.00;99.90;;;;;;5052713;28;20067;-75
2023/03/28 07:13:49;;;;;;;10.30;2.53;;;2.10;99.90;;;;;;5072321;28;20045;-78
2023/03/28 07:16:16;;;;;;;10.23;2.63;;;2.20;99.90;;;;;;5072318;28;20044;-74
2023/03/28 07:18:42;;;;;;;12.80;2.10;;;2.30;99.90;;;;;;5072583;28;20048;-73
2023/03/28 07:21:11;;;;;;;11.20;2.38;;;2.50;99.90;;;;;;5071169;28;20052;-75
2023/03/28 07:23:38;;;;;;;16.45;2.30;;;2.50;99.90;;;;;;5070548;28;20554;-73
2023/03/28 07:26:05;;;;;;;15.32;2.08;;;2.50;99.90;;;;;;5042998;28;20109;-73
2023/03/28 07:28:31;;;;;;;12.40;2.35;;;2.70;99.90;;;;;;5072287;28;20098;-74
2023/03/28 07:31:00;;;;;;;11.57;2.47;;;3.80;99.90;;;;;;5057442;28;20048;-72
2023/03/28 07:33:25;;;;;;;9.38;2.30;;;3.00;99.90;;;;;;5052282;28;20049;-73
2023/03/28 07:35:51;;;;;;;15.60;2.15;;;3.10;99.90;;;;;;5052436;28;20045;-73
2023/03/28 07:38:17;;;;;;;11.40;1.90;;;3.30;99.90;;;;;;5052221;28;20488;-73
2023/03/28 07:40:44;;;;;;;5.80;1.80;;;3.40;99.90;;;;;;5034193;28;20488;-80
2023/03/28 07:43:09;;;;;;;7.68;1.75;;;3.60;99.90;;;;;;5067246;28;20055;-75
2023/03/28 07:45:36;;;;;;;4.97;1.90;;;4.40;99.90;;;;;;5072157;28;20044;-74
2023/03/28 07:48:03;;;;;;;10.02;1.80;;;3.90;99.90;;;;;;5071320;28;20133;-75
2023/03/28 07:50:28;;;;;;;8.25;1.45;;;4.10;99.90;;;;;;5054039;28;20051;-77
2023/03/28 07:52:56;;;;;;;9.00;1.20;;;4.30;99.90;;;;;;5071890;28;20052;-75
2023/03/28 07:55:26;;;;;;;12.93;1.73;;;4.50;99.90;;;;;;5069768;28;20056;-74
2023/03/28 07:57:53;;;;;;;9.48;1.35;;;4.70;99.90;;;;;;5072810;28;20045;-74
2023/03/28 08:00:22;;;;;;;9.23;1.30;;;4.80;99.90;;;;;;5072452;28;20037;-74
2023/03/28 08:02:49;;;;;;;10.93;1.55;;;4.90;99.90;;;;;;5071141;28;20032;-75
2023/03/28 08:05:15;;;;;;;11.02;1.27;;;5.00;99.90;;;;;;5043601;28;20058;-74
2023/03/28 08:07:44;;;;;;;17.45;2.83;;;5.40;99.90;;;;;;5054298;28;20045;-73
2023/03/28 08:10:11;;;;;;;8.23;1.40;;;5.00;99.90;;;;;;5060691;28;20067;-75
2023/03/28 08:12:37;;;;;;;8.05;1.23;;;5.00;99.90;;;;;;5034290;28;20064;-74
2023/03/28 08:15:04;;;;;;;9.88;1.55;;;5.00;99.90;;;;;;5053448;28;20032;-74
2023/03/28 08:17:30;;;;;;;6.55;1.23;;;5.00;99.90;;;;;;5051746;28;20524;-75
2023/03/28 08:19:56;;;;;;;16.17;1.48;;;5.00;99.90;;;;;;5034302;28;20045;-74
2023/03/28 08:22:23;;;;;;;8.88;1.52;;;5.00;99.90;;;;;;5052028;28;20462;-74
2023/03/28 08:24:49;;;;;;;7.40;1.40;;;5.00;99.90;;;;;;5035448;28;20395;-74
2023/03/28 08:27:15;;;;;;;11.25;1.95;;;5.00;99.90;;;;;;5052479;28;20044;-74
2023/03/28 08:29:41;;;;;;;12.43;2.10;;;5.10;99.90;;;;;;5055534;28;20400;-74
2023/03/28 08:32:06;;;;;;;13.23;2.25;;;5.20;99.90;;;;;;5070468;28;20087;-78
2023/03/28 08:34:32;;;;;;;11.00;1.73;;;5.20;99.90;;;;;;5071451;28;20109;-74
2023/03/28 08:37:01;;;;;;;12.27;1.63;;;5.30;99.90;;;;;;5071909;28;20040;-74
2023/03/28 08:39:26;;;;;;;8.70;1.25;;;5.30;99.90;;;;;;5071359;28;20048;-74
2023/03/28 08:42:04;;;;;;;10.10;1.35;;;5.40;99.90;;;;;;5067933;28;20424;-73
2023/03/28 08:44:46;;;;;;;8.38;1.02;;;5.40;99.90;;;;;;5033651;28;20056;-75
2023/03/28 08:47:17;;;;;;;6.93;1.20;;;5.40;99.90;;;;;;5051533;28;20049;-75
2023/03/28 08:49:55;;;;;;;7.80;1.35;;;5.50;99.90;;;;;;5045298;28;20048;-74
2023/03/28 08:52:21;;;;;;;8.77;1.05;;;5.70;99.90;;;;;;5033627;28;20067;-73
2023/03/28 08:55:16;;;;;;;7.50;1.30;;;5.90;99.90;;;;;;5060469;28;20075;-76
2023/03/28 08:57:44;;;;;;;4.00;1.00;;;5.90;99.90;;;;;;5071266;28;20053;-74
2023/03/28 09:00:21;;;;;;;9.95;1.17;;;6.00;99.90;;;;;;5036921;28;20056;-73
2023/03/28 09:02:47;;;;;;;10.43;1.38;;;6.20;99.90;;;;;;5071692;28;20056;-74
2023/03/28 09:05:15;;;;;;;3.90;1.25;;;6.30;99.90;;;;;;5070308;28;20048;-73
2023/03/28 09:07:47;;;;;;;9.15;1.23;;;6.50;99.90;;;;;;5069215;28;20074;-74
2023/03/28 09:10:32;;;;;;;2.80;0.77;;;6.60;99.90;;;;;;5071236;28;20060;-73
2023/03/28 09:13:18;;;;;;;4.93;0.80;;;6.80;99.90;;;;;;5070979;28;20074;-75
2023/03/28 09:15:56;;;;;;;6.03;0.80;;;7.10;99.90;;;;;;5038968;28;20048;-75
2023/03/28 09:19:11;;;;;;;7.10;1.02;;;7.20;99.90;;;;;;5050869;28;20055;-75
2023/03/28 09:22:01;;;;;;;5.78;0.90;;;7.30;99.90;;;;;;4953367;28;20055;-77
2023/03/28 09:24:54;;;;;;;5.82;0.88;;;7.50;99.90;;;;;;4969577;28;20133;-79
2023/03/28 09:27:29;;;;;;;4.03;1.38;;;7.50;99.90;;;;;;4988884;28;20038;-80
2023/03/28 09:30:02;;;;;;;6.05;1.02;;;7.60;99.90;;;;;;4989004;28;20102;-79
2023/03/28 09:32:35;;;;;;;5.25;0.90;;;7.50;99.90;;;;;;4988890;28;20069;-76
2023/03/28 09:35:05;;;;;;;6.60;1.00;;;7.60;99.90;;;;;;4988842;28;20129;-80
2023/03/28 09:37:43;;;;;;;6.57;1.05;;;7.50;99.90;;;;;;4972150;28;20406;-75
2023/03/28 09:40:28;;;;;;;7.93;1.08;;;7.60;99.90;;;;;;4969273;28;20057;-78
2023/03/28 09:43:14;;;;;;;5.13;1.08;;;8.00;99.90;;;;;;4981028;28;20054;-77
2023/03/28 09:46:01;;;;;;;6.95;0.80;;;8.00;99.90;;;;;;4986940;28;20449;-76
2023/03/28 09:48:37;;;;;;;5.75;1.20;;;8.00;99.90;;;;;;4988669;28;20133;-78
2023/03/28 09:51:05;;;;;;;6.85;1.10;;;7.90;99.90;;;;;;4988605;28;20466;-76
2023/03/28 09:53:35;;;;;;;10.68;1.58;;;7.80;99.90;;;;;;4988741;28;20425;-85
2023/03/28 09:56:26;;;;;;;10.93;1.13;;;7.80;99.90;;;;;;4986941;28;20058;-75
2023/03/28 09:58:55;;;;;;;9.23;1.10;;;8.20;99.90;;;;;;4982381;28;20149;-79
2023/03/28 10:01:39;;;;;;;4.95;0.95;;;7.50;99.90;;;;;;5006179;28;20056;-81
2023/03/28 10:04:17;;;;;;;7.80;0.90;;;7.40;99.90;;;;;;5008126;28;20107;-73
2023/03/28 10:06:44;;;;;;;4.90;1.20;;;7.30;99.90;;;;;;5000519;28;20057;-74
2023/03/28 10:09:18;;;;;;;3.58;1.00;;;7.30;99.90;;;;;;4992805;28;20513;-76
2023/03/28 10:11:55;;;;;;;5.88;0.90;;;7.20;99.90;;;;;;5007866;28;20065;-77
2023/03/28 10:14:38;;;;;;;5.53;1.00;;;7.90;99.90;;;;;;5008276;28;20132;-74
2023/03/28 10:17:14;;;;;;;11.35;1.33;;;8.10;99.90;;;;;;4995402;28;20451;-75
2023/03/28 10:19:43;;;;;;;5.65;1.20;;;7.10;99.90;;;;;;4991978;28;20054;-75
2023/03/28 10:22:22;;;;;;;5.93;1.02;;;7.10;99.90;;;;;;4992311;28;20081;-75
2023/03/28 10:24:48;;;;;;;8.60;1.30;;;7.10;99.90;;;;;;4998666;28;20532;-78
2023/03/28 10:27:31;;;;;;;6.70;1.58;;;7.30;99.90;;;;;;5011261;28;20042;-73
2023/03/28 10:30:07;;;;;;;7.78;1.13;;;7.40;99.90;;;;;;5004814;28;20395;-74
2023/03/28 10:32:33;;;;;;;4.68;1.20;;;7.60;99.90;;;;;;4992823;28;20061;-73
2023/03/28 10:35:05;;;;;;;8.45;1.52;;;7.50;99.90;;;;;;4968950;28;20057;-74
2023/03/28 10:37:33;;;;;;;9.13;1.90;;;7.50;99.90;;;;;;5054025;28;20118;-74
2023/03/28 10:40:04;;;;;;;8.48;1.60;;;7.40;99.90;;;;;;5054268;28;20072;-74
2023/03/28 10:42:39;;;;;;;5.78;1.60;;;7.40;99.90;;;;;;5054298;28;20048;-74
2023/03/28 10:45:06;;;;;;;8.18;1.80;;;7.80;99.90;;;;;;5054135;28;20045;-74
2023/03/28 10:47:32;;;;;;;5.60;1.63;;;7.30;99.90;;;;;;5053745;28;20049;-74
2023/03/28 10:49:59;;;;;;;8.73;1.70;;;7.30;99.90;;;;;;5054055;28;20049;-75
2023/03/28 10:52:45;;;;;;;7.22;1.95;;;7.40;99.90;;;;;;5053532;28;20488;-73
2023/03/28 10:55:37;;;;;;;8.23;1.80;;;7.40;99.90;;;;;;5054754;28;20508;-74
2023/03/28 10:58:12;;;;;;;5.28;1.70;;;7.40;99.90;;;;;;4979197;28;20046;-76
2023/03/28 11:00:45;;;;;;;8.38;2.15;;;7.50;99.90;;;;;;4991655;28;20054;-75
2023/03/28 11:03:28;;;;;;;6.28;1.88;;;7.50;99.90;;;;;;4990644;28;20066;-75
2023/03/28 11:06:01;;;;;;;6.75;1.52;;;7.50;99.90;;;;;;4990829;28;20046;-74
2023/03/28 11:08:41;;;;;;;7.43;1.42;;;7.50;99.90;;;;;;4990927;28;20064;-75
2023/03/28 11:11:35;;;;;;;5.93;1.90;;;7.60;99.90;;;;;;4991129;28;20058;-75
2023/03/28 11:14:16;;;;;;;6.38;1.60;;;7.60;99.90;;;;;;4991188;28;20058;-73
2023/03/28 11:16:51;;;;;;;5.68;1.77;;;8.20;99.90;;;;;;4991185;28;20537;-74
2023/03/28 11:19:55;;;;;;;4.80;1.40;;;7.60;99.90;;;;;;4983927;28;20058;-74
2023/03/28 11:22:46;;;;;;;4.65;1.77;;;7.70;99.90;;;;;;4954986;28;20059;-74
2023/03/28 11:25:38;;;;;;;8.02;2.00;;;7.70;99.90;;;;;;4971121;28;20046;-75
2023/03/28 11:28:11;;;;;;;7.55;2.10;;;8.70;99.90;;;;;;4970875;28;20094;-74
2023/03/28 11:30:42;;;;;;;4.53;1.90;;;8.00;99.90;;;;;;4971321;28;20687;-74
2023/03/28 11:33:17;;;;;;;7.80;1.40;;;8.70;99.90;;;;;;4955094;28;20053;-74
2023/03/28 11:35:51;;;;;;;7.15;2.13;;;8.70;99.90;;;;;;5021503;28;20411;-77
2023/03/28 11:38:50;;;;;;;5.57;1.55;;;9.40;99.90;;;;;;5051939;28;20772;-74
2023/03/28 11:41:23;;;;;;;5.22;1.75;;;8.70;99.90;;;;;;4971849;28;20086;-75
2023/03/28 11:44:26;;;;;;;5.82;1.92;;;8.70;99.90;;;;;;4970777;28;20047;-75
2023/03/28 11:47:03;;;;;;;12.07;2.42;;;8.70;99.90;;;;;;4913429;29;20076;-75
2023/03/28 11:49:36;;;;;;;12.77;2.20;;;8.70;99.90;;;;;;4922315;29;20558;-78
2023/03/28 11:52:05;;;;;;;6.10;1.70;;;9.00;99.90;;;;;;4942656;29;20102;-76
2023/03/28 11:54:43;;;;;;;8.60;2.22;;;8.70;99.90;;;;;;4951227;29;20168;-77
2023/03/28 11:57:18;;;;;;;7.03;1.92;;;8.80;99.90;;;;;;4913032;29;20558;-75
2023/03/28 11:59:54;;;;;;;5.57;1.70;;;8.90;99.90;;;;;;4913228;29;20083;-79
2023/03/28 12:02:28;;;;;;;9.98;1.83;;;9.50;99.90;;;;;;4897544;29;20464;-75
2023/03/28 12:05:04;;;;;;;5.68;1.90;;;9.70;99.90;;;;;;4913120;29;20063;-74
2023/03/28 12:07:49;;;;;;;8.90;2.10;;;9.20;99.90;;;;;;4912745;29;20091;-73
2023/03/28 12:10:25;;;;;;;7.10;2.08;;;9.20;99.90;;;;;;4918507;29;20052;-78
2023/03/28 12:12:54;;;;;;;8.38;2.28;;;9.40;99.90;;;;;;4948712;29;20047;-80
2023/03/28 12:15:23;;;;;;;6.88;1.90;;;9.30;99.90;;;;;;4951064;29;20098;-86
2023/03/28 12:17:59;;;;;;;4.97;1.90;;;9.40;99.90;;;;;;4958407;28;20053;-74
2023/03/28 12:20:44;;;;;;;9.77;2.50;;;9.20;99.90;;;;;;4984827;28;20528;-75
2023/03/28 12:23:38;;;;;;;7.50;3.33;;;9.20;99.90;;;;;;5035119;28;20103;-73
2023/03/28 12:26:29;;;;;;;10.30;2.35;;;9.20;99.90;;;;;;5035482;28;20519;-79
2023/03/28 12:29:00;;;;;;;8.77;2.25;;;9.40;99.90;;;;;;5051421;28;20075;-81
2023/03/28 12:31:52;;;;;;;8.88;2.65;;;9.90;99.90;;;;;;5051079;28;20049;-77
2023/03/28 12:34:29;;;;;;;9.70;2.10;;;9.60;99.90;;;;;;5050112;28;20483;-74
2023/03/28 12:37:17;;;;;;;9.82;2.60;;;9.60;99.90;;;;;;5031971;28;20049;-75
2023/03/28 12:39:49;;;;;;;5.30;2.05;;;9.60;99.90;;;;;;5032000;28;20045;-73
2023/03/28 12:42:20;;;;;;;6.30;2.30;;;9.70;99.90;;;;;;5030038;28;20053;-75
2023/03/28 12:45:00;;;;;;;9.38;2.78;;;9.80;99.90;;;;;;5030890;28;20049;-73
2023/03/28 12:47:33;;;;;;;7.88;2.30;;;9.50;99.90;;;;;;5035915;28;20128;-73
2023/03/28 12:50:08;;;;;;;5.47;1.95;;;9.40;99.90;;;;;;5031858;28;20053;-74
2023/03/28 12:52:37;;;;;;;9.85;2.10;;;9.20;99.90;;;;;;5049172;28;20044;-73
2023/03/28 12:55:08;;;;;;;5.20;1.90;;;9.30;99.90;;;;;;5032503;28;20399;-74
2023/03/28 12:57:41;;;;;;;5.82;1.90;;;9.30;99.90;;;;;;5050799;28;20088;-75
2023/03/28 13:00:13;;;;;;;6.05;2.25;;;9.40;99.90;;;;;;5048907;28;20049;-74
2023/03/28 13:02:53;;;;;;;6.82;2.03;;;9.40;99.90;;;;;;5050772;28;20037;-74
2023/03/28 13:05:47;;;;;;;8.80;2.03;;;9.40;99.90;;;;;;5032908;28;20063;-80
2023/03/28 13:08:46;;;;;;;11.48;2.38;;;9.40;99.90;;;;;;5049884;28;20131;-73
2023/03/28 13:11:32;;;;;;;8.88;2.15;;;9.30;99.90;;;;;;5025576;28;20522;-74
2023/03/28 13:14:26;;;;;;;7.90;2.50;;;9.30;99.90;;;;;;5070102;28;20055;-76
2023/03/28 13:16:57;;;;;;;5.25;2.10;;;9.20;99.90;;;;;;5070478;28;20048;-74
2023/03/28 13:19:41;;;;;;;6.80;2.17;;;9.20;99.90;;;;;;5070425;28;20131;-73